Huvudsida
METAR-TAF:

METAR-TAF

Flygplatser :

Göteborg-Landvetter, Sverige

Göteborg-Landvetter Airport

latitud: 57-40N, longitud: 012-18E, höjd: 169 m

Aktuellt väderrapport

Denna rapport gjordes för 35 minuter sedan, klockan 11:50 UTC
Vind 18 kt från ost/nordost
Temperatur 19°C
Fuktighet 56%
Tryck 1002 hPa
Sikt 10 km eller mer
Inga moln under 1 500 m eller inga cumulonimbus

METAR: ESGG 291150Z 06018KT CAVOK 19/10 Q1002

Tid: 14:25 (12:25 UTC)

Väderprognos

Denna rapport gjordes för 55 minuter sedan, klockan 11:30 UTC
Prognos gäller från 29 kl. 12 UTC till 30 kl. 12 UTC
Vind 17 kt från ost/nordost
Sikt 10 km eller mer
Inga moln under 1 500 m eller inga cumulonimbus
Blir
från 29 kl. 14 UTC till 29 kl. 16 UTC
Vind 15 kt från ost/nordost i byarna ända upp till 25 kt
Sannolikhet 40%
från 30 kl. 07 UTC till 30 kl. 12 UTC
Sikt 10 km eller mer
Brutna moln på en höjd av 2500 ft
lätt regn

TAF: ESGG 291130Z 2912/3012 06017KT CAVOK BECMG 2914/2916 06015G25KT PROB40 3007/3012 9999 -RA BKN025

Aktuella väderrapporter och prognoser från 4000 flygplatser (METAR- och TAF-rapporter).

De tillgängliga stationerna syns som gula och röda prickar på kartan.

För musen över prickarna för att se namnen på stationerna.

Klicka sedan för att få väderrapporter och prognoser.

För att ändra kartan: Klicka på de gröna knapparna med ett svart kors på för att zooma in; den gröna knappen med ett streck på för att zooma ut; eller på de gröna pilarna för angränsande kartor.


METAR-TAF: